sensor_id;sensor_type;location;lat;lon;timestamp;P1;durP1;ratioP1;P2;durP2;ratioP2
63394;SDS011;49531;-34.520;150.798;2024-02-26T00:01:18;5.72;;;2.25;;
63394;SDS011;49531;-34.520;150.798;2024-02-26T00:03:45;4.43;;;2.45;;
63394;SDS011;49531;-34.520;150.798;2024-02-26T00:06:12;4.80;;;2.35;;
63394;SDS011;49531;-34.520;150.798;2024-02-26T00:08:40;5.00;;;2.45;;
63394;SDS011;49531;-34.520;150.798;2024-02-26T00:11:07;3.95;;;2.40;;
63394;SDS011;49531;-34.520;150.798;2024-02-26T00:13:34;3.47;;;2.38;;
63394;SDS011;49531;-34.520;150.798;2024-02-26T00:16:02;3.88;;;2.50;;
63394;SDS011;49531;-34.520;150.798;2024-02-26T00:18:33;3.80;;;2.50;;
63394;SDS011;49531;-34.520;150.798;2024-02-26T00:21:00;3.58;;;2.40;;
63394;SDS011;49531;-34.520;150.798;2024-02-26T00:23:28;4.00;;;2.58;;
63394;SDS011;49531;-34.520;150.798;2024-02-26T00:25:55;3.95;;;2.28;;
63394;SDS011;49531;-34.520;150.798;2024-02-26T00:28:26;6.65;;;2.90;;
63394;SDS011;49531;-34.520;150.798;2024-02-26T00:30:54;3.70;;;2.60;;
63394;SDS011;49531;-34.520;150.798;2024-02-26T00:33:22;4.43;;;2.70;;
63394;SDS011;49531;-34.520;150.798;2024-02-26T00:35:49;5.38;;;2.58;;
63394;SDS011;49531;-34.520;150.798;2024-02-26T00:38:16;5.65;;;2.80;;
63394;SDS011;49531;-34.520;150.798;2024-02-26T00:40:43;4.72;;;2.80;;
63394;SDS011;49531;-34.520;150.798;2024-02-26T00:43:11;4.18;;;2.60;;
63394;SDS011;49531;-34.520;150.798;2024-02-26T00:45:38;5.10;;;2.72;;
63394;SDS011;49531;-34.520;150.798;2024-02-26T00:48:05;5.47;;;2.75;;
63394;SDS011;49531;-34.520;150.798;2024-02-26T00:50:33;4.18;;;2.53;;
63394;SDS011;49531;-34.520;150.798;2024-02-26T00:53:01;5.30;;;2.63;;
63394;SDS011;49531;-34.520;150.798;2024-02-26T00:55:28;4.95;;;2.60;;
63394;SDS011;49531;-34.520;150.798;2024-02-26T00:57:55;5.13;;;2.80;;
63394;SDS011;49531;-34.520;150.798;2024-02-26T01:00:22;4.10;;;2.72;;
63394;SDS011;49531;-34.520;150.798;2024-02-26T01:02:50;4.50;;;2.80;;
63394;SDS011;49531;-34.520;150.798;2024-02-26T01:05:17;4.35;;;2.88;;
63394;SDS011;49531;-34.520;150.798;2024-02-26T01:07:44;4.72;;;3.00;;
63394;SDS011;49531;-34.520;150.798;2024-02-26T01:10:40;4.88;;;2.90;;
63394;SDS011;49531;-34.520;150.798;2024-02-26T01:13:10;4.35;;;2.78;;
63394;SDS011;49531;-34.520;150.798;2024-02-26T01:15:39;4.57;;;2.90;;
63394;SDS011;49531;-34.520;150.798;2024-02-26T01:18:06;5.50;;;3.08;;
63394;SDS011;49531;-34.520;150.798;2024-02-26T01:20:34;5.10;;;3.10;;
63394;SDS011;49531;-34.520;150.798;2024-02-26T01:23:01;5.80;;;3.30;;
63394;SDS011;49531;-34.520;150.798;2024-02-26T01:25:28;4.55;;;2.90;;
63394;SDS011;49531;-34.520;150.798;2024-02-26T01:27:55;4.97;;;2.97;;
63394;SDS011;49531;-34.520;150.798;2024-02-26T01:30:22;5.00;;;3.10;;
63394;SDS011;49531;-34.520;150.798;2024-02-26T01:32:49;5.05;;;3.05;;
63394;SDS011;49531;-34.520;150.798;2024-02-26T01:35:16;3.42;;;2.90;;
63394;SDS011;49531;-34.520;150.798;2024-02-26T01:37:44;5.60;;;3.13;;
63394;SDS011;49531;-34.520;150.798;2024-02-26T01:40:12;4.38;;;3.33;;
63394;SDS011;49531;-34.520;150.798;2024-02-26T01:42:45;5.32;;;3.15;;
63394;SDS011;49531;-34.520;150.798;2024-02-26T01:45:13;5.35;;;3.25;;
63394;SDS011;49531;-34.520;150.798;2024-02-26T01:47:48;7.18;;;3.50;;
63394;SDS011;49531;-34.520;150.798;2024-02-26T01:50:17;5.78;;;3.38;;
63394;SDS011;49531;-34.520;150.798;2024-02-26T01:52:49;5.68;;;3.25;;
63394;SDS011;49531;-34.520;150.798;2024-02-26T01:55:20;5.20;;;3.25;;
63394;SDS011;49531;-34.520;150.798;2024-02-26T01:57:49;5.25;;;3.20;;
63394;SDS011;49531;-34.520;150.798;2024-02-26T02:00:18;6.03;;;3.45;;
63394;SDS011;49531;-34.520;150.798;2024-02-26T02:02:47;5.90;;;3.45;;
63394;SDS011;49531;-34.520;150.798;2024-02-26T02:05:15;7.55;;;3.30;;
63394;SDS011;49531;-34.520;150.798;2024-02-26T02:07:45;5.00;;;3.30;;
63394;SDS011;49531;-34.520;150.798;2024-02-26T02:10:14;5.43;;;3.38;;
63394;SDS011;49531;-34.520;150.798;2024-02-26T02:12:43;6.82;;;3.80;;
63394;SDS011;49531;-34.520;150.798;2024-02-26T02:15:10;7.22;;;3.50;;
63394;SDS011;49531;-34.520;150.798;2024-02-26T02:17:38;5.03;;;3.28;;
63394;SDS011;49531;-34.520;150.798;2024-02-26T02:20:08;6.88;;;3.33;;
63394;SDS011;49531;-34.520;150.798;2024-02-26T02:22:36;4.18;;;3.38;;
63394;SDS011;49531;-34.520;150.798;2024-02-26T02:25:04;6.57;;;3.38;;
63394;SDS011;49531;-34.520;150.798;2024-02-26T02:27:31;5.85;;;3.50;;
63394;SDS011;49531;-34.520;150.798;2024-02-26T02:29:59;5.85;;;3.53;;
63394;SDS011;49531;-34.520;150.798;2024-02-26T02:32:26;4.07;;;3.25;;
63394;SDS011;49531;-34.520;150.798;2024-02-26T02:34:53;6.00;;;3.60;;
63394;SDS011;49531;-34.520;150.798;2024-02-26T02:37:21;6.78;;;3.60;;
63394;SDS011;49531;-34.520;150.798;2024-02-26T02:39:48;7.05;;;3.40;;
63394;SDS011;49531;-34.520;150.798;2024-02-26T02:42:15;5.18;;;3.50;;
63394;SDS011;49531;-34.520;150.798;2024-02-26T02:44:42;4.85;;;3.40;;
63394;SDS011;49531;-34.520;150.798;2024-02-26T02:47:10;5.07;;;3.38;;
63394;SDS011;49531;-34.520;150.798;2024-02-26T02:49:37;6.57;;;3.50;;
63394;SDS011;49531;-34.520;150.798;2024-02-26T02:52:04;5.75;;;3.50;;
63394;SDS011;49531;-34.520;150.798;2024-02-26T02:54:31;6.80;;;3.50;;
63394;SDS011;49531;-34.520;150.798;2024-02-26T02:56:59;5.07;;;3.40;;
63394;SDS011;49531;-34.520;150.798;2024-02-26T02:59:26;4.63;;;3.10;;
63394;SDS011;49531;-34.520;150.798;2024-02-26T03:01:53;4.60;;;2.97;;
63394;SDS011;49531;-34.520;150.798;2024-02-26T03:04:20;5.05;;;3.40;;
63394;SDS011;49531;-34.520;150.798;2024-02-26T03:06:48;5.85;;;3.40;;
63394;SDS011;49531;-34.520;150.798;2024-02-26T03:09:15;5.70;;;3.30;;
63394;SDS011;49531;-34.520;150.798;2024-02-26T03:11:42;4.40;;;3.30;;
63394;SDS011;49531;-34.520;150.798;2024-02-26T03:14:09;5.30;;;3.58;;
63394;SDS011;49531;-34.520;150.798;2024-02-26T03:16:36;5.78;;;3.45;;
63394;SDS011;49531;-34.520;150.798;2024-02-26T03:19:03;7.78;;;3.65;;
63394;SDS011;49531;-34.520;150.798;2024-02-26T03:21:30;5.90;;;3.53;;
63394;SDS011;49531;-34.520;150.798;2024-02-26T03:23:57;6.85;;;3.40;;
63394;SDS011;49531;-34.520;150.798;2024-02-26T03:26:27;4.22;;;3.35;;
63394;SDS011;49531;-34.520;150.798;2024-02-26T03:28:56;7.20;;;3.38;;
63394;SDS011;49531;-34.520;150.798;2024-02-26T03:31:23;7.45;;;3.35;;
63394;SDS011;49531;-34.520;150.798;2024-02-26T03:33:51;5.78;;;3.20;;
63394;SDS011;49531;-34.520;150.798;2024-02-26T03:36:21;6.25;;;3.33;;
63394;SDS011;49531;-34.520;150.798;2024-02-26T03:38:48;7.40;;;3.25;;
63394;SDS011;49531;-34.520;150.798;2024-02-26T03:41:15;8.43;;;3.30;;
63394;SDS011;49531;-34.520;150.798;2024-02-26T03:43:42;15.98;;;5.10;;
63394;SDS011;49531;-34.520;150.798;2024-02-26T03:46:10;11.88;;;4.57;;
63394;SDS011;49531;-34.520;150.798;2024-02-26T03:48:41;15.32;;;5.15;;
63394;SDS011;49531;-34.520;150.798;2024-02-26T03:51:09;14.98;;;5.20;;
63394;SDS011;49531;-34.520;150.798;2024-02-26T03:53:36;15.48;;;5.20;;
63394;SDS011;49531;-34.520;150.798;2024-02-26T03:56:04;14.40;;;4.97;;
63394;SDS011;49531;-34.520;150.798;2024-02-26T03:58:32;13.75;;;4.80;;
63394;SDS011;49531;-34.520;150.798;2024-02-26T04:01:00;16.25;;;5.35;;
63394;SDS011;49531;-34.520;150.798;2024-02-26T04:03:27;14.43;;;5.22;;
63394;SDS011;49531;-34.520;150.798;2024-02-26T04:05:54;16.40;;;5.30;;
63394;SDS011;49531;-34.520;150.798;2024-02-26T04:08:21;19.65;;;5.05;;
63394;SDS011;49531;-34.520;150.798;2024-02-26T04:10:49;13.48;;;4.97;;
63394;SDS011;49531;-34.520;150.798;2024-02-26T04:13:16;14.60;;;5.22;;
63394;SDS011;49531;-34.520;150.798;2024-02-26T04:15:44;17.40;;;5.10;;
63394;SDS011;49531;-34.520;150.798;2024-02-26T04:18:12;13.57;;;4.80;;
63394;SDS011;49531;-34.520;150.798;2024-02-26T04:20:40;18.00;;;5.38;;
63394;SDS011;49531;-34.520;150.798;2024-02-26T04:23:07;15.55;;;5.32;;
63394;SDS011;49531;-34.520;150.798;2024-02-26T04:25:34;15.25;;;5.40;;
63394;SDS011;49531;-34.520;150.798;2024-02-26T04:28:02;17.00;;;6.10;;
63394;SDS011;49531;-34.520;150.798;2024-02-26T04:30:29;20.35;;;5.80;;
63394;SDS011;49531;-34.520;150.798;2024-02-26T04:32:56;14.52;;;5.60;;
63394;SDS011;49531;-34.520;150.798;2024-02-26T04:35:23;19.80;;;5.38;;
63394;SDS011;49531;-34.520;150.798;2024-02-26T04:37:50;15.68;;;5.55;;
63394;SDS011;49531;-34.520;150.798;2024-02-26T04:40:18;14.23;;;5.22;;
63394;SDS011;49531;-34.520;150.798;2024-02-26T04:42:45;17.58;;;5.28;;
63394;SDS011;49531;-34.520;150.798;2024-02-26T04:45:12;15.23;;;5.00;;
63394;SDS011;49531;-34.520;150.798;2024-02-26T04:47:39;16.67;;;5.90;;
63394;SDS011;49531;-34.520;150.798;2024-02-26T04:50:06;15.85;;;5.60;;
63394;SDS011;49531;-34.520;150.798;2024-02-26T04:52:34;16.13;;;4.97;;
63394;SDS011;49531;-34.520;150.798;2024-02-26T04:55:02;20.15;;;5.82;;
63394;SDS011;49531;-34.520;150.798;2024-02-26T04:57:29;18.17;;;4.97;;
63394;SDS011;49531;-34.520;150.798;2024-02-26T04:59:56;20.15;;;5.13;;
63394;SDS011;49531;-34.520;150.798;2024-02-26T05:02:23;14.93;;;5.30;;
63394;SDS011;49531;-34.520;150.798;2024-02-26T05:04:50;14.63;;;5.45;;
63394;SDS011;49531;-34.520;150.798;2024-02-26T05:07:17;15.30;;;5.28;;
63394;SDS011;49531;-34.520;150.798;2024-02-26T05:09:45;17.38;;;5.45;;
63394;SDS011;49531;-34.520;150.798;2024-02-26T05:12:15;14.85;;;5.65;;
63394;SDS011;49531;-34.520;150.798;2024-02-26T05:14:42;19.13;;;5.15;;
63394;SDS011;49531;-34.520;150.798;2024-02-26T05:17:09;15.93;;;5.50;;
63394;SDS011;49531;-34.520;150.798;2024-02-26T05:19:36;15.88;;;5.22;;
63394;SDS011;49531;-34.520;150.798;2024-02-26T05:22:03;16.35;;;5.20;;
63394;SDS011;49531;-34.520;150.798;2024-02-26T05:24:30;12.60;;;4.82;;
63394;SDS011;49531;-34.520;150.798;2024-02-26T05:26:58;14.57;;;5.25;;
63394;SDS011;49531;-34.520;150.798;2024-02-26T05:29:26;14.85;;;4.95;;
63394;SDS011;49531;-34.520;150.798;2024-02-26T05:31:53;16.15;;;5.20;;
63394;SDS011;49531;-34.520;150.798;2024-02-26T05:34:20;13.13;;;4.72;;
63394;SDS011;49531;-34.520;150.798;2024-02-26T05:36:47;11.20;;;4.60;;
63394;SDS011;49531;-34.520;150.798;2024-02-26T05:39:14;11.60;;;4.95;;
63394;SDS011;49531;-34.520;150.798;2024-02-26T05:41:42;11.48;;;4.78;;
63394;SDS011;49531;-34.520;150.798;2024-02-26T05:44:09;16.83;;;4.85;;
63394;SDS011;49531;-34.520;150.798;2024-02-26T05:46:37;14.88;;;4.72;;
63394;SDS011;49531;-34.520;150.798;2024-02-26T05:49:04;15.63;;;4.25;;
63394;SDS011;49531;-34.520;150.798;2024-02-26T05:51:32;10.95;;;4.80;;
63394;SDS011;49531;-34.520;150.798;2024-02-26T05:53:59;11.10;;;4.32;;
63394;SDS011;49531;-34.520;150.798;2024-02-26T05:56:26;11.00;;;4.25;;
63394;SDS011;49531;-34.520;150.798;2024-02-26T05:58:54;9.30;;;3.90;;
63394;SDS011;49531;-34.520;150.798;2024-02-26T06:01:21;10.15;;;4.40;;
63394;SDS011;49531;-34.520;150.798;2024-02-26T06:03:49;12.48;;;4.38;;
63394;SDS011;49531;-34.520;150.798;2024-02-26T06:06:16;12.00;;;4.28;;
63394;SDS011;49531;-34.520;150.798;2024-02-26T06:08:43;13.50;;;4.53;;
63394;SDS011;49531;-34.520;150.798;2024-02-26T06:11:10;14.63;;;4.63;;
63394;SDS011;49531;-34.520;150.798;2024-02-26T06:13:37;13.48;;;4.78;;
63394;SDS011;49531;-34.520;150.798;2024-02-26T06:16:05;18.13;;;4.75;;
63394;SDS011;49531;-34.520;150.798;2024-02-26T06:18:34;14.55;;;4.60;;
63394;SDS011;49531;-34.520;150.798;2024-02-26T06:21:01;19.42;;;4.70;;
63394;SDS011;49531;-34.520;150.798;2024-02-26T06:23:28;17.88;;;5.30;;
63394;SDS011;49531;-34.520;150.798;2024-02-26T06:25:55;14.68;;;4.47;;
63394;SDS011;49531;-34.520;150.798;2024-02-26T06:28:26;13.82;;;4.20;;
63394;SDS011;49531;-34.520;150.798;2024-02-26T06:30:56;17.85;;;4.53;;
63394;SDS011;49531;-34.520;150.798;2024-02-26T06:33:23;13.43;;;4.20;;
63394;SDS011;49531;-34.520;150.798;2024-02-26T06:35:50;12.52;;;4.60;;
63394;SDS011;49531;-34.520;150.798;2024-02-26T06:38:24;17.15;;;5.00;;
63394;SDS011;49531;-34.520;150.798;2024-02-26T07:00:53;13.30;;;4.32;;
63394;SDS011;49531;-34.520;150.798;2024-02-26T07:03:20;14.63;;;4.80;;
63394;SDS011;49531;-34.520;150.798;2024-02-26T07:05:51;11.85;;;4.30;;
63394;SDS011;49531;-34.520;150.798;2024-02-26T07:08:18;13.27;;;4.10;;
63394;SDS011;49531;-34.520;150.798;2024-02-26T07:10:46;10.30;;;3.75;;
63394;SDS011;49531;-34.520;150.798;2024-02-26T07:13:14;9.45;;;3.90;;
63394;SDS011;49531;-34.520;150.798;2024-02-26T07:15:41;11.20;;;4.22;;
63394;SDS011;49531;-34.520;150.798;2024-02-26T07:18:08;10.80;;;4.10;;
63394;SDS011;49531;-34.520;150.798;2024-02-26T07:20:36;12.50;;;4.32;;
63394;SDS011;49531;-34.520;150.798;2024-02-26T07:23:03;13.63;;;3.97;;
63394;SDS011;49531;-34.520;150.798;2024-02-26T07:25:32;12.63;;;4.00;;
63394;SDS011;49531;-34.520;150.798;2024-02-26T07:27:59;12.82;;;4.38;;
63394;SDS011;49531;-34.520;150.798;2024-02-26T07:30:26;12.15;;;4.25;;
63394;SDS011;49531;-34.520;150.798;2024-02-26T07:32:53;12.63;;;4.15;;
63394;SDS011;49531;-34.520;150.798;2024-02-26T07:35:20;11.65;;;3.88;;
63394;SDS011;49531;-34.520;150.798;2024-02-26T07:37:48;11.15;;;4.07;;
63394;SDS011;49531;-34.520;150.798;2024-02-26T07:40:15;12.35;;;4.38;;
63394;SDS011;49531;-34.520;150.798;2024-02-26T07:42:43;13.38;;;4.60;;
63394;SDS011;49531;-34.520;150.798;2024-02-26T07:45:10;13.20;;;3.92;;
63394;SDS011;49531;-34.520;150.798;2024-02-26T07:47:37;12.40;;;4.00;;
63394;SDS011;49531;-34.520;150.798;2024-02-26T07:50:07;13.45;;;3.95;;
63394;SDS011;49531;-34.520;150.798;2024-02-26T07:52:34;12.48;;;3.63;;
63394;SDS011;49531;-34.520;150.798;2024-02-26T07:55:01;9.15;;;3.40;;
63394;SDS011;49531;-34.520;150.798;2024-02-26T07:57:29;9.68;;;3.90;;
63394;SDS011;49531;-34.520;150.798;2024-02-26T07:59:56;14.00;;;3.83;;
63394;SDS011;49531;-34.520;150.798;2024-02-26T08:02:23;11.20;;;3.63;;
63394;SDS011;49531;-34.520;150.798;2024-02-26T08:04:50;10.65;;;3.63;;
63394;SDS011;49531;-34.520;150.798;2024-02-26T08:07:17;10.43;;;3.22;;
63394;SDS011;49531;-34.520;150.798;2024-02-26T08:09:45;14.80;;;3.50;;
63394;SDS011;49531;-34.520;150.798;2024-02-26T08:12:13;8.45;;;3.58;;
63394;SDS011;49531;-34.520;150.798;2024-02-26T08:14:40;9.73;;;3.28;;
63394;SDS011;49531;-34.520;150.798;2024-02-26T08:17:09;10.18;;;3.33;;
63394;SDS011;49531;-34.520;150.798;2024-02-26T08:19:36;11.13;;;3.50;;
63394;SDS011;49531;-34.520;150.798;2024-02-26T08:22:04;10.35;;;3.08;;
63394;SDS011;49531;-34.520;150.798;2024-02-26T08:24:31;11.20;;;3.15;;
63394;SDS011;49531;-34.520;150.798;2024-02-26T08:26:58;9.13;;;3.22;;
63394;SDS011;49531;-34.520;150.798;2024-02-26T08:29:25;11.40;;;3.30;;
63394;SDS011;49531;-34.520;150.798;2024-02-26T08:31:52;9.88;;;3.10;;
63394;SDS011;49531;-34.520;150.798;2024-02-26T08:34:19;8.63;;;2.90;;
63394;SDS011;49531;-34.520;150.798;2024-02-26T08:36:47;10.98;;;3.10;;
63394;SDS011;49531;-34.520;150.798;2024-02-26T08:39:14;10.27;;;2.60;;
63394;SDS011;49531;-34.520;150.798;2024-02-26T08:41:43;9.90;;;2.90;;
63394;SDS011;49531;-34.520;150.798;2024-02-26T08:44:10;9.15;;;2.80;;
63394;SDS011;49531;-34.520;150.798;2024-02-26T08:46:37;9.73;;;2.80;;
63394;SDS011;49531;-34.520;150.798;2024-02-26T08:49:05;8.55;;;2.78;;
63394;SDS011;49531;-34.520;150.798;2024-02-26T08:51:32;9.20;;;3.00;;
63394;SDS011;49531;-34.520;150.798;2024-02-26T08:53:59;7.70;;;2.88;;
63394;SDS011;49531;-34.520;150.798;2024-02-26T08:56:26;9.80;;;2.80;;
63394;SDS011;49531;-34.520;150.798;2024-02-26T08:58:53;9.77;;;2.60;;
63394;SDS011;49531;-34.520;150.798;2024-02-26T09:01:22;10.80;;;2.63;;
63394;SDS011;49531;-34.520;150.798;2024-02-26T09:03:49;7.63;;;2.63;;
63394;SDS011;49531;-34.520;150.798;2024-02-26T09:06:16;9.85;;;2.50;;
63394;SDS011;49531;-34.520;150.798;2024-02-26T09:08:43;6.18;;;2.30;;
63394;SDS011;49531;-34.520;150.798;2024-02-26T09:11:10;7.78;;;2.30;;
63394;SDS011;49531;-34.520;150.798;2024-02-26T09:13:38;6.60;;;2.40;;
63394;SDS011;49531;-34.520;150.798;2024-02-26T09:16:05;6.47;;;2.45;;
63394;SDS011;49531;-34.520;150.798;2024-02-26T09:18:32;9.48;;;2.47;;
63394;SDS011;49531;-34.520;150.798;2024-02-26T09:20:59;9.05;;;2.25;;
63394;SDS011;49531;-34.520;150.798;2024-02-26T09:23:30;6.50;;;2.40;;
63394;SDS011;49531;-34.520;150.798;2024-02-26T09:25:58;7.10;;;2.15;;
63394;SDS011;49531;-34.520;150.798;2024-02-26T09:28:25;8.27;;;2.40;;
63394;SDS011;49531;-34.520;150.798;2024-02-26T09:30:52;6.05;;;2.03;;
63394;SDS011;49531;-34.520;150.798;2024-02-26T09:33:20;7.70;;;2.25;;
63394;SDS011;49531;-34.520;150.798;2024-02-26T09:35:47;6.82;;;2.20;;
63394;SDS011;49531;-34.520;150.798;2024-02-26T09:38:15;7.22;;;2.20;;
63394;SDS011;49531;-34.520;150.798;2024-02-26T09:40:42;7.85;;;2.40;;
63394;SDS011;49531;-34.520;150.798;2024-02-26T09:43:09;6.22;;;1.85;;
63394;SDS011;49531;-34.520;150.798;2024-02-26T09:45:41;4.90;;;2.10;;
63394;SDS011;49531;-34.520;150.798;2024-02-26T09:48:09;5.15;;;2.10;;
63394;SDS011;49531;-34.520;150.798;2024-02-26T09:50:40;5.60;;;2.00;;
63394;SDS011;49531;-34.520;150.798;2024-02-26T09:53:08;5.30;;;1.98;;
63394;SDS011;49531;-34.520;150.798;2024-02-26T09:55:37;5.20;;;2.00;;
63394;SDS011;49531;-34.520;150.798;2024-02-26T09:58:05;6.03;;;1.90;;
63394;SDS011;49531;-34.520;150.798;2024-02-26T10:00:32;5.93;;;2.10;;
63394;SDS011;49531;-34.520;150.798;2024-02-26T10:05:35;4.18;;;1.98;;
63394;SDS011;49531;-34.520;150.798;2024-02-26T10:08:05;5.80;;;2.10;;
63394;SDS011;49531;-34.520;150.798;2024-02-26T10:10:32;5.20;;;2.00;;
63394;SDS011;49531;-34.520;150.798;2024-02-26T10:12:59;4.82;;;1.80;;
63394;SDS011;49531;-34.520;150.798;2024-02-26T10:15:27;7.35;;;2.13;;
63394;SDS011;49531;-34.520;150.798;2024-02-26T10:17:54;5.70;;;2.10;;
63394;SDS011;49531;-34.520;150.798;2024-02-26T10:20:21;5.90;;;2.00;;
63394;SDS011;49531;-34.520;150.798;2024-02-26T10:22:51;5.65;;;2.15;;
63394;SDS011;49531;-34.520;150.798;2024-02-26T10:25:19;7.03;;;2.10;;
63394;SDS011;49531;-34.520;150.798;2024-02-26T10:27:46;3.90;;;1.65;;
63394;SDS011;49531;-34.520;150.798;2024-02-26T10:30:17;4.82;;;1.90;;
63394;SDS011;49531;-34.520;150.798;2024-02-26T10:32:47;6.00;;;1.90;;
63394;SDS011;49531;-34.520;150.798;2024-02-26T10:35:18;4.78;;;1.65;;
63394;SDS011;49531;-34.520;150.798;2024-02-26T10:37:49;7.10;;;1.80;;
63394;SDS011;49531;-34.520;150.798;2024-02-26T10:40:17;4.18;;;1.73;;
63394;SDS011;49531;-34.520;150.798;2024-02-26T10:42:44;7.53;;;2.30;;
63394;SDS011;49531;-34.520;150.798;2024-02-26T10:45:12;6.55;;;1.90;;
63394;SDS011;49531;-34.520;150.798;2024-02-26T10:47:40;5.45;;;1.80;;
63394;SDS011;49531;-34.520;150.798;2024-02-26T10:50:10;5.30;;;1.90;;
63394;SDS011;49531;-34.520;150.798;2024-02-26T10:52:43;5.60;;;2.00;;
63394;SDS011;49531;-34.520;150.798;2024-02-26T10:55:15;6.00;;;1.80;;
63394;SDS011;49531;-34.520;150.798;2024-02-26T10:57:46;6.53;;;1.85;;
63394;SDS011;49531;-34.520;150.798;2024-02-26T11:00:14;3.83;;;1.70;;
63394;SDS011;49531;-34.520;150.798;2024-02-26T11:02:42;5.72;;;1.70;;
63394;SDS011;49531;-34.520;150.798;2024-02-26T11:05:12;4.13;;;1.83;;
63394;SDS011;49531;-34.520;150.798;2024-02-26T11:07:39;7.20;;;1.90;;
63394;SDS011;49531;-34.520;150.798;2024-02-26T11:10:08;5.75;;;1.77;;
63394;SDS011;49531;-34.520;150.798;2024-02-26T11:12:37;4.55;;;1.85;;
63394;SDS011;49531;-34.520;150.798;2024-02-26T11:15:07;4.47;;;1.70;;
63394;SDS011;49531;-34.520;150.798;2024-02-26T11:17:35;6.68;;;1.92;;
63394;SDS011;49531;-34.520;150.798;2024-02-26T11:20:04;6.70;;;1.80;;
63394;SDS011;49531;-34.520;150.798;2024-02-26T11:22:35;5.50;;;1.70;;
63394;SDS011;49531;-34.520;150.798;2024-02-26T11:25:03;4.47;;;1.92;;
63394;SDS011;49531;-34.520;150.798;2024-02-26T11:27:42;8.70;;;1.83;;
63394;SDS011;49531;-34.520;150.798;2024-02-26T11:30:13;5.63;;;1.90;;
63394;SDS011;49531;-34.520;150.798;2024-02-26T11:32:46;4.32;;;1.60;;
63394;SDS011;49531;-34.520;150.798;2024-02-26T11:35:13;7.90;;;1.80;;
63394;SDS011;49531;-34.520;150.798;2024-02-26T11:37:51;6.20;;;1.67;;
63394;SDS011;49531;-34.520;150.798;2024-02-26T11:40:23;7.82;;;1.77;;
63394;SDS011;49531;-34.520;150.798;2024-02-26T11:42:51;6.05;;;1.70;;
63394;SDS011;49531;-34.520;150.798;2024-02-26T11:48:15;5.00;;;1.60;;
63394;SDS011;49531;-34.520;150.798;2024-02-26T11:50:49;5.50;;;1.70;;
63394;SDS011;49531;-34.520;150.798;2024-02-26T11:53:24;4.60;;;1.70;;
63394;SDS011;49531;-34.520;150.798;2024-02-26T11:58:59;5.78;;;1.42;;
63394;SDS011;49531;-34.520;150.798;2024-02-26T12:01:43;7.00;;;2.17;;
63394;SDS011;49531;-34.520;150.798;2024-02-26T12:04:26;6.93;;;1.95;;
63394;SDS011;49531;-34.520;150.798;2024-02-26T12:06:56;4.93;;;1.60;;
63394;SDS011;49531;-34.520;150.798;2024-02-26T12:09:36;5.50;;;1.70;;
63394;SDS011;49531;-34.520;150.798;2024-02-26T12:14:33;6.00;;;1.52;;
63394;SDS011;49531;-34.520;150.798;2024-02-26T12:17:03;5.07;;;1.52;;
63394;SDS011;49531;-34.520;150.798;2024-02-26T12:19:37;5.45;;;1.60;;
63394;SDS011;49531;-34.520;150.798;2024-02-26T12:22:04;4.75;;;1.70;;
63394;SDS011;49531;-34.520;150.798;2024-02-26T12:24:34;6.07;;;1.50;;
63394;SDS011;49531;-34.520;150.798;2024-02-26T12:27:01;6.38;;;1.60;;
63394;SDS011;49531;-34.520;150.798;2024-02-26T12:29:29;3.75;;;1.20;;
63394;SDS011;49531;-34.520;150.798;2024-02-26T12:31:56;5.10;;;1.63;;
63394;SDS011;49531;-34.520;150.798;2024-02-26T12:34:23;5.55;;;1.67;;
63394;SDS011;49531;-34.520;150.798;2024-02-26T12:36:52;3.40;;;1.20;;
63394;SDS011;49531;-34.520;150.798;2024-02-26T12:39:21;4.57;;;1.48;;
63394;SDS011;49531;-34.520;150.798;2024-02-26T14:42:36;7.13;;;1.48;;
63394;SDS011;49531;-34.520;150.798;2024-02-26T16:45:51;2.35;;;1.20;;
63394;SDS011;49531;-34.520;150.798;2024-02-26T16:48:18;3.03;;;1.08;;
63394;SDS011;49531;-34.520;150.798;2024-02-26T16:50:45;5.68;;;1.30;;
63394;SDS011;49531;-34.520;150.798;2024-02-26T16:53:12;3.95;;;1.30;;
63394;SDS011;49531;-34.520;150.798;2024-02-26T16:55:39;4.35;;;1.30;;
63394;SDS011;49531;-34.520;150.798;2024-02-26T16:58:06;2.70;;;1.27;;
63394;SDS011;49531;-34.520;150.798;2024-02-26T17:00:34;3.50;;;1.20;;
63394;SDS011;49531;-34.520;150.798;2024-02-26T17:03:02;2.97;;;1.25;;
63394;SDS011;49531;-34.520;150.798;2024-02-26T17:05:29;4.45;;;1.23;;
63394;SDS011;49531;-34.520;150.798;2024-02-26T17:07:56;3.08;;;1.30;;
63394;SDS011;49531;-34.520;150.798;2024-02-26T17:10:23;3.92;;;1.10;;
63394;SDS011;49531;-34.520;150.798;2024-02-26T17:12:50;3.00;;;1.30;;
63394;SDS011;49531;-34.520;150.798;2024-02-26T17:15:17;4.47;;;1.40;;
63394;SDS011;49531;-34.520;150.798;2024-02-26T17:17:44;3.63;;;1.30;;
63394;SDS011;49531;-34.520;150.798;2024-02-26T17:20:12;3.75;;;1.20;;
63394;SDS011;49531;-34.520;150.798;2024-02-26T17:22:39;3.10;;;1.10;;
63394;SDS011;49531;-34.520;150.798;2024-02-26T17:25:07;3.58;;;1.10;;
63394;SDS011;49531;-34.520;150.798;2024-02-26T17:27:36;3.13;;;1.20;;
63394;SDS011;49531;-34.520;150.798;2024-02-26T17:30:04;3.13;;;1.20;;
63394;SDS011;49531;-34.520;150.798;2024-02-26T17:32:32;4.65;;;1.40;;
63394;SDS011;49531;-34.520;150.798;2024-02-26T17:35:00;5.88;;;1.30;;
63394;SDS011;49531;-34.520;150.798;2024-02-26T17:37:27;3.95;;;1.50;;
63394;SDS011;49531;-34.520;150.798;2024-02-26T17:39:54;3.53;;;1.23;;
63394;SDS011;49531;-34.520;150.798;2024-02-26T17:42:21;3.33;;;1.30;;
63394;SDS011;49531;-34.520;150.798;2024-02-26T17:44:48;3.90;;;1.20;;
63394;SDS011;49531;-34.520;150.798;2024-02-26T17:47:15;3.63;;;1.10;;
63394;SDS011;49531;-34.520;150.798;2024-02-26T17:49:42;3.78;;;1.30;;
63394;SDS011;49531;-34.520;150.798;2024-02-26T17:52:10;2.63;;;1.20;;
63394;SDS011;49531;-34.520;150.798;2024-02-26T17:54:38;5.53;;;1.27;;
63394;SDS011;49531;-34.520;150.798;2024-02-26T17:57:05;4.03;;;1.30;;
63394;SDS011;49531;-34.520;150.798;2024-02-26T17:59:32;4.47;;;1.38;;
63394;SDS011;49531;-34.520;150.798;2024-02-26T18:02:01;4.82;;;1.20;;
63394;SDS011;49531;-34.520;150.798;2024-02-26T18:04:28;3.20;;;1.20;;
63394;SDS011;49531;-34.520;150.798;2024-02-26T18:06:56;4.40;;;1.23;;
63394;SDS011;49531;-34.520;150.798;2024-02-26T18:09:23;3.58;;;1.02;;
63394;SDS011;49531;-34.520;150.798;2024-02-26T18:11:54;3.80;;;1.25;;
63394;SDS011;49531;-34.520;150.798;2024-02-26T18:14:21;3.80;;;1.25;;
63394;SDS011;49531;-34.520;150.798;2024-02-26T18:16:48;4.88;;;1.42;;
63394;SDS011;49531;-34.520;150.798;2024-02-26T18:19:15;2.95;;;1.20;;
63394;SDS011;49531;-34.520;150.798;2024-02-26T18:21:43;4.00;;;1.40;;
63394;SDS011;49531;-34.520;150.798;2024-02-26T18:24:10;3.53;;;1.13;;
63394;SDS011;49531;-34.520;150.798;2024-02-26T18:26:37;4.28;;;1.27;;
63394;SDS011;49531;-34.520;150.798;2024-02-26T18:29:04;5.05;;;1.50;;
63394;SDS011;49531;-34.520;150.798;2024-02-26T18:31:31;3.75;;;1.20;;
63394;SDS011;49531;-34.520;150.798;2024-02-26T18:33:58;4.03;;;1.20;;
63394;SDS011;49531;-34.520;150.798;2024-02-26T18:36:25;4.38;;;1.70;;
63394;SDS011;49531;-34.520;150.798;2024-02-26T18:38:53;3.97;;;1.50;;
63394;SDS011;49531;-34.520;150.798;2024-02-26T18:41:20;2.50;;;1.10;;
63394;SDS011;49531;-34.520;150.798;2024-02-26T18:43:49;4.65;;;1.45;;